Time;durP1;ratioP1;P1;durP2;ratioP2;P2;SDS_P1;SDS_P2;PMS_P1;PMS_P2;Temp;Humidity;BMP_temperature;BMP_pressure;BME280_temperature;BME280_humidity;BME280_pressure;Samples;Min_cycle;Max_cycle;Signal;HPM_P1;HPM_P2
2021/10/27 00:02:20;;;;;;;28.08;10.15;;;;;;;10.87;100.00;101763.75;5038367;28;20032;-81
2021/10/27 00:04:46;;;;;;;18.52;10.15;;;;;;;10.94;100.00;101766.72;5035053;28;20455;-81
2021/10/27 00:07:12;;;;;;;24.40;9.80;;;;;;;11.02;100.00;101763.47;5032620;28;20040;-81
2021/10/27 00:09:45;;;;;;;21.73;10.48;;;;;;;10.90;100.00;101758.25;5012379;28;20044;-78
2021/10/27 00:12:17;;;;;;;21.08;10.07;;;;;;;10.87;100.00;101755.06;5015245;28;20074;-80
2021/10/27 00:14:51;;;;;;;19.80;9.93;;;;;;;10.86;100.00;101748.97;5032904;28;20056;-80
2021/10/27 00:17:17;;;;;;;18.65;9.73;;;;;;;11.03;100.00;101765.97;5050169;28;20403;-80
2021/10/27 00:19:43;;;;;;;23.05;10.77;;;;;;;11.07;100.00;101777.88;5062126;28;20069;-82
2021/10/27 00:22:46;;;;;;;22.83;10.27;;;;;;;11.18;100.00;101778.81;5061223;28;20475;-80
2021/10/27 00:25:20;;;;;;;21.17;8.77;;;;;;;11.10;100.00;101763.69;5049085;28;20029;-81
2021/10/27 00:28:16;;;;;;;18.67;9.75;;;;;;;11.12;100.00;101774.06;5031625;28;20029;-80
2021/10/27 00:31:00;;;;;;;21.10;9.45;;;;;;;10.97;100.00;101749.91;5040761;28;20041;-79
2021/10/27 00:33:36;;;;;;;19.42;10.27;;;;;;;10.87;100.00;101757.69;5060158;28;20552;-80
2021/10/27 00:36:07;;;;;;;28.20;10.63;;;;;;;11.01;100.00;101781.00;5029122;28;20040;-81
2021/10/27 00:38:54;;;;;;;25.08;10.85;;;;;;;10.89;100.00;101766.28;5043956;28;20038;-81
2021/10/27 00:41:46;;;;;;;25.25;11.43;;;;;;;10.74;100.00;101754.34;5040582;28;20029;-80
2021/10/27 00:44:19;;;;;;;25.63;11.80;;;;;;;10.82;100.00;101770.34;5012951;28;20124;-81
2021/10/27 00:46:45;;;;;;;22.63;11.45;;;;;;;10.86;100.00;101783.06;5040102;28;20033;-81
2021/10/27 00:49:11;;;;;;;27.02;11.60;;;;;;;10.88;100.00;101768.03;5044311;28;20048;-80
2021/10/27 00:51:36;;;;;;;22.65;11.40;;;;;;;10.89;100.00;101766.28;5026569;28;20612;-81
2021/10/27 00:54:02;;;;;;;25.55;10.88;;;;;;;11.01;100.00;101774.94;5040800;28;20047;-81
2021/10/27 00:56:28;;;;;;;19.92;10.90;;;;;;;11.08;100.00;101776.13;5033578;28;20037;-82
2021/10/27 00:58:54;;;;;;;26.77;11.48;;;;;;;11.03;100.00;101770.41;5005235;28;20067;-81
2021/10/27 01:01:20;;;;;;;22.83;11.38;;;;;;;11.04;100.00;101778.16;5027461;28;20037;-83
2021/10/27 01:03:46;;;;;;;24.92;11.77;;;;;;;11.06;100.00;101778.03;5032768;28;20576;-82
2021/10/27 01:06:11;;;;;;;23.50;11.50;;;;;;;11.06;100.00;101770.97;5059847;28;20028;-81
2021/10/27 01:08:37;;;;;;;24.88;11.68;;;;;;;11.07;100.00;101770.00;5030571;28;20044;-80
2021/10/27 01:11:03;;;;;;;27.23;12.45;;;;;;;11.07;100.00;101772.63;5027081;28;20474;-83
2021/10/27 01:13:29;;;;;;;18.20;11.82;;;;;;;11.00;100.00;101760.13;5052079;28;20039;-81
2021/10/27 01:15:55;;;;;;;28.15;11.57;;;;;;;11.16;100.00;101775.50;5023715;28;20116;-83
2021/10/27 01:18:22;;;;;;;28.85;12.93;;;;;;;11.25;100.00;101774.75;5023443;28;20055;-81
2021/10/27 01:20:47;;;;;;;20.73;11.68;;;;;;;11.18;100.00;101768.31;5039028;28;20029;-81
2021/10/27 01:23:13;;;;;;;20.38;11.00;;;;;;;11.08;100.00;101768.25;5038118;28;20021;-81
2021/10/27 01:25:38;;;;;;;25.42;12.02;;;;;;;11.11;100.00;101773.22;5023915;28;20112;-81
2021/10/27 01:28:04;;;;;;;28.83;13.73;;;;;;;11.11;100.00;101778.47;5033168;28;20108;-82
2021/10/27 01:30:29;;;;;;;20.58;11.52;;;;;;;11.15;100.00;101774.66;5036374;28;20033;-82
2021/10/27 01:32:55;;;;;;;21.42;12.10;;;;;;;11.21;100.00;101770.72;5022664;28;20036;-81
2021/10/27 01:35:21;;;;;;;24.50;12.18;;;;;;;11.26;100.00;101773.75;5026816;28;20677;-81
2021/10/27 01:37:46;;;;;;;19.88;11.77;;;;;;;11.26;100.00;101761.50;5052826;28;20044;-81
2021/10/27 01:40:16;;;;;;;23.60;11.13;;;;;;;11.21;100.00;101768.91;5020313;28;20041;-81
2021/10/27 01:42:42;;;;;;;22.60;12.05;;;;;;;11.13;100.00;101759.97;5040830;28;20036;-80
2021/10/27 01:45:08;;;;;;;21.17;11.52;;;;;;;11.18;100.00;101763.88;5038951;28;20025;-82
2021/10/27 01:47:41;;;;;;;24.85;12.43;;;;;;;11.25;100.00;101761.59;5035659;28;20455;-81
2021/10/27 01:50:07;;;;;;;22.53;11.83;;;;;;;11.18;100.00;101761.25;5020125;28;20041;-81
2021/10/27 01:52:32;;;;;;;24.30;11.95;;;;;;;11.11;100.00;101760.09;5046571;28;20442;-81
2021/10/27 01:54:58;;;;;;;29.15;12.40;;;;;;;11.10;100.00;101761.06;5023161;28;20052;-81
2021/10/27 01:57:24;;;;;;;22.05;12.25;;;;;;;11.12;100.00;101760.94;5021916;28;20039;-82
2021/10/27 01:59:50;;;;;;;24.45;12.00;;;;;;;11.08;100.00;101774.31;5020296;28;20071;-81
2021/10/27 02:02:15;;;;;;;26.83;11.40;;;;;;;10.99;100.00;101764.56;5018991;28;20083;-81
2021/10/27 02:04:41;;;;;;;27.75;12.82;;;;;;;10.96;100.00;101772.66;5038535;28;20400;-81
2021/10/27 02:07:06;;;;;;;26.42;12.20;;;;;;;10.93;100.00;101767.69;5038388;28;20124;-80
2021/10/27 02:09:32;;;;;;;25.15;12.48;;;;;;;10.89;100.00;101782.03;5022104;28;20131;-81
2021/10/27 02:11:58;;;;;;;31.20;12.52;;;;;;;10.86;100.00;101774.38;5023687;28;20033;-82
2021/10/27 02:14:27;;;;;;;19.88;12.82;;;;;;;10.97;100.00;101776.16;5039154;28;20475;-81
2021/10/27 02:16:52;;;;;;;20.45;11.30;;;;;;;10.93;100.00;101770.31;5020466;28;20033;-81
2021/10/27 02:19:18;;;;;;;32.40;12.43;;;;;;;10.94;100.00;101766.72;5018450;28;20039;-81
2021/10/27 02:21:44;;;;;;;25.98;13.18;;;;;;;11.08;100.00;101776.94;5054327;28;20082;-81
2021/10/27 02:24:10;;;;;;;20.20;12.60;;;;;;;11.05;100.00;101779.81;5024882;28;20124;-81
2021/10/27 02:26:35;;;;;;;23.30;12.30;;;;;;;11.03;100.00;101778.28;5044654;28;20048;-81
2021/10/27 02:29:01;;;;;;;22.63;12.30;;;;;;;11.02;100.00;101784.47;5034038;28;20461;-81
2021/10/27 02:31:26;;;;;;;25.35;13.27;;;;;;;11.05;100.00;101782.44;5052059;28;20047;-82
2021/10/27 02:33:52;;;;;;;19.48;12.55;;;;;;;11.10;100.00;101779.44;5041426;28;20135;-81
2021/10/27 02:36:17;;;;;;;23.20;13.75;;;;;;;11.08;100.00;101771.69;5037210;28;20040;-82
2021/10/27 02:38:43;;;;;;;26.60;13.73;;;;;;;11.07;100.00;101770.00;5034953;28;20112;-81
2021/10/27 02:41:11;;;;;;;23.13;13.70;;;;;;;11.02;100.00;101768.72;5004956;28;20494;-80
2021/10/27 02:43:36;;;;;;;26.80;14.77;;;;;;;11.10;100.00;101776.81;5018964;28;20411;-81
2021/10/27 02:46:03;;;;;;;27.20;15.45;;;;;;;11.22;100.00;101775.81;5014530;28;20098;-80
2021/10/27 02:48:28;;;;;;;25.73;13.93;;;;;;;11.19;100.00;101775.22;5019221;28;20385;-79
2021/10/27 02:50:54;;;;;;;29.27;16.23;;;;;;;11.23;100.00;101774.03;5033543;28;20037;-80
2021/10/27 02:53:19;;;;;;;24.65;15.05;;;;;;;11.22;100.00;101767.09;5048943;28;20511;-80
2021/10/27 02:55:45;;;;;;;32.55;15.30;;;;;;;11.09;100.00;101755.00;5016370;28;20036;-80
2021/10/27 02:58:10;;;;;;;39.60;15.95;;;;;;;11.30;100.00;101773.41;5019998;28;20088;-80
2021/10/27 03:00:36;;;;;;;29.42;15.20;;;;;;;11.29;100.00;101763.03;5017377;28;20040;-82
2021/10/27 03:03:02;;;;;;;25.85;14.90;;;;;;;11.28;100.00;101759.56;5011367;28;20045;-79
2021/10/27 03:05:28;;;;;;;27.02;15.30;;;;;;;11.25;100.00;101754.56;5032003;28;20029;-80
2021/10/27 03:07:54;;;;;;;28.20;15.85;;;;;;;11.24;100.00;101758.13;5005407;28;20031;-80
2021/10/27 03:10:19;;;;;;;25.35;14.82;;;;;;;11.25;100.00;101762.44;5039338;28;21748;-82
2021/10/27 03:12:45;;;;;;;29.30;16.33;;;;;;;11.29;100.00;101757.78;5037823;28;20102;-82
2021/10/27 03:15:11;;;;;;;27.98;16.27;;;;;;;11.38;100.00;101758.81;5028337;28;20034;-81
2021/10/27 03:17:37;;;;;;;28.95;16.75;;;;;;;11.40;100.00;101757.72;5032495;28;20071;-81
2021/10/27 03:20:03;;;;;;;28.73;16.10;;;;;;;11.35;100.00;101759.06;5037822;28;20576;-82
2021/10/27 03:22:28;;;;;;;25.00;16.05;;;;;;;11.35;100.00;101748.53;5034292;28;20033;-81
2021/10/27 03:24:54;;;;;;;35.20;16.15;;;;;;;11.44;100.00;101750.41;5043919;28;20026;-81
2021/10/27 03:27:19;;;;;;;30.75;17.38;;;;;;;11.40;100.00;101751.63;5035039;28;20051;-82
2021/10/27 03:29:45;;;;;;;29.45;17.08;;;;;;;11.40;100.00;101751.63;5032327;28;20033;-82
2021/10/27 03:32:13;;;;;;;29.95;18.27;;;;;;;11.43;100.00;101759.25;5037996;28;20167;-82
2021/10/27 03:34:38;;;;;;;32.70;17.23;;;;;;;11.45;100.00;101760.81;5029343;28;20044;-81
2021/10/27 03:37:04;;;;;;;27.15;17.40;;;;;;;11.40;100.00;101760.34;5031617;28;20422;-80
2021/10/27 03:39:30;;;;;;;32.95;18.02;;;;;;;11.40;100.00;101759.53;5036382;28;20040;-81
2021/10/27 03:41:55;;;;;;;30.52;16.67;;;;;;;11.44;100.00;101756.50;5032610;28;20037;-80
2021/10/27 03:44:21;;;;;;;31.48;16.30;;;;;;;11.38;100.00;101769.31;5036349;28;20506;-82
2021/10/27 03:46:47;;;;;;;34.17;17.25;;;;;;;11.40;100.00;101767.41;5033565;28;20034;-81
2021/10/27 03:49:13;;;;;;;32.10;17.65;;;;;;;11.45;100.00;101770.47;5049342;28;20029;-81
2021/10/27 03:51:39;;;;;;;30.55;17.27;;;;;;;11.43;100.00;101773.22;5024155;28;20026;-81
2021/10/27 03:54:04;;;;;;;32.13;17.60;;;;;;;11.42;100.00;101778.59;5016936;28;20033;-81
2021/10/27 03:56:30;;;;;;;32.78;18.52;;;;;;;11.44;100.00;101771.44;5033824;28;20079;-81
2021/10/27 03:58:55;;;;;;;29.48;17.05;;;;;;;11.42;100.00;101779.44;5021711;28;20025;-81
2021/10/27 04:01:21;;;;;;;34.63;17.08;;;;;;;11.42;100.00;101792.56;5032573;28;20476;-81
2021/10/27 04:03:46;;;;;;;33.17;17.85;;;;;;;11.39;100.00;101790.19;5056309;28;20040;-81
2021/10/27 04:06:12;;;;;;;41.83;18.00;;;;;;;11.38;100.00;101790.34;5044125;28;20437;-81
2021/10/27 04:08:37;;;;;;;34.88;16.98;;;;;;;11.39;100.00;101798.06;5035161;28;20040;-81
2021/10/27 04:11:03;;;;;;;32.33;17.38;;;;;;;11.32;100.00;101802.19;5022451;28;20499;-81
2021/10/27 04:13:29;;;;;;;35.53;16.85;;;;;;;11.25;100.00;101795.75;5033110;28;20388;-82
2021/10/27 04:15:54;;;;;;;36.60;18.35;;;;;;;11.27;100.00;101804.34;5032236;28;20430;-81
2021/10/27 04:18:19;;;;;;;31.02;18.17;;;;;;;11.35;100.00;101816.84;5007944;28;20059;-81
2021/10/27 04:20:45;;;;;;;33.55;19.08;;;;;;;11.38;100.00;101808.72;5008676;28;20040;-81
2021/10/27 04:23:10;;;;;;;33.10;18.20;;;;;;;11.33;100.00;101818.75;5041231;28;20040;-81
2021/10/27 04:25:36;;;;;;;36.28;18.35;;;;;;;11.39;100.00;101819.06;5027851;28;20407;-81
2021/10/27 04:28:02;;;;;;;36.65;20.17;;;;;;;11.49;100.00;101813.94;5040964;28;20391;-81
2021/10/27 04:30:28;;;;;;;32.50;18.80;;;;;;;11.44;100.00;101810.84;5040568;28;20032;-81
2021/10/27 04:32:53;;;;;;;41.83;20.02;;;;;;;11.46;100.00;101816.78;5044599;28;20500;-81
2021/10/27 04:35:19;;;;;;;34.63;17.80;;;;;;;11.46;100.00;101807.13;5030977;28;20060;-80
2021/10/27 04:37:45;;;;;;;33.13;18.92;;;;;;;11.45;100.00;101810.72;5039389;28;20029;-81
2021/10/27 04:40:13;;;;;;;35.30;18.98;;;;;;;11.48;100.00;101807.00;5034889;28;20033;-81
2021/10/27 04:42:39;;;;;;;34.90;19.58;;;;;;;11.55;100.00;101804.72;5055555;28;20033;-81
2021/10/27 04:45:06;;;;;;;34.85;20.45;;;;;;;11.59;100.00;101804.31;5037649;28;20082;-81
2021/10/27 04:47:36;;;;;;;33.75;19.17;;;;;;;11.60;100.00;101789.38;5018818;28;20098;-81
2021/10/27 04:50:03;;;;;;;32.45;18.27;;;;;;;11.64;100.00;101791.63;5036371;28;20441;-81
2021/10/27 04:52:28;;;;;;;34.50;18.98;;;;;;;11.68;100.00;101789.59;5033056;28;20102;-81
2021/10/27 04:54:54;;;;;;;35.65;18.70;;;;;;;11.65;100.00;101793.28;5020300;28;20056;-81
2021/10/27 04:57:19;;;;;;;35.47;18.98;;;;;;;11.63;100.00;101782.06;5057848;28;20040;-81
2021/10/27 04:59:45;;;;;;;32.08;18.75;;;;;;;11.70;100.00;101785.03;5018497;28;20045;-81
2021/10/27 05:02:13;;;;;;;42.30;21.08;;;;;;;11.76;100.00;101795.03;5041321;28;20044;-81
2021/10/27 05:04:39;;;;;;;35.03;18.83;;;;;;;11.77;100.00;101790.59;5016337;28;20037;-80
2021/10/27 05:07:05;;;;;;;34.55;18.63;;;;;;;11.73;100.00;101800.53;5022625;28;20536;-80
2021/10/27 05:09:31;;;;;;;34.50;19.02;;;;;;;11.65;100.00;101798.53;5057615;28;20040;-81
2021/10/27 05:11:57;;;;;;;30.30;18.80;;;;;;;11.68;100.00;101802.72;5055027;28;20036;-81
2021/10/27 05:14:23;;;;;;;36.42;19.08;;;;;;;11.68;100.00;101806.19;5030685;28;20033;-80
2021/10/27 05:16:49;;;;;;;31.73;17.92;;;;;;;11.60;100.00;101808.63;5030004;28;20110;-81
2021/10/27 05:19:15;;;;;;;38.58;18.50;;;;;;;11.71;100.00;101809.50;5055293;28;20112;-81
2021/10/27 05:21:40;;;;;;;34.63;18.00;;;;;;;11.69;100.00;101823.59;5029193;28;20047;-81
2021/10/27 05:24:06;;;;;;;33.85;19.10;;;;;;;11.67;100.00;101822.06;5032568;28;20030;-81
2021/10/27 05:26:31;;;;;;;31.50;18.58;;;;;;;11.59;100.00;101814.00;5032597;28;20446;-80
2021/10/27 05:28:56;;;;;;;33.63;18.17;;;;;;;11.61;100.00;101812.91;5035166;28;20041;-81
2021/10/27 05:31:22;;;;;;;39.95;17.95;;;;;;;11.59;100.00;101812.19;5022325;28;20067;-81
2021/10/27 05:33:47;;;;;;;35.67;17.52;;;;;;;11.64;100.00;101803.91;5020677;28;20071;-81
2021/10/27 05:36:13;;;;;;;33.25;18.55;;;;;;;11.71;100.00;101805.06;5033685;28;20380;-82
2021/10/27 05:38:39;;;;;;;35.22;18.45;;;;;;;11.73;100.00;101815.47;5013205;28;20029;-80
2021/10/27 05:41:05;;;;;;;34.92;18.13;;;;;;;11.67;100.00;101820.25;5017854;28;20111;-80
2021/10/27 05:43:32;;;;;;;32.58;17.85;;;;;;;11.60;100.00;101816.50;5026373;28;20083;-78
2021/10/27 05:46:04;;;;;;;27.33;17.13;;;;;;;11.51;100.00;101804.13;5026146;28;20099;-80
2021/10/27 05:48:40;;;;;;;29.30;16.45;;;;;;;11.54;100.00;101810.91;5032094;28;20041;-78
2021/10/27 05:56:19;;;;;;;35.63;17.48;;;;;;;11.69;100.00;101813.09;5037754;28;20040;-79
2021/10/27 05:58:45;;;;;;;34.60;16.85;;;;;;;11.78;100.00;101814.13;5036109;28;20037;-79
2021/10/27 06:01:11;;;;;;;28.48;15.27;;;;;;;11.72;100.00;101808.56;5036570;28;20068;-79
2021/10/27 06:03:37;;;;;;;29.95;15.57;;;;;;;11.76;100.00;101820.47;5027588;28;20037;-79
2021/10/27 06:06:03;;;;;;;26.02;15.10;;;;;;;11.74;100.00;101820.59;5046968;28;20040;-79
2021/10/27 06:08:28;;;;;;;28.35;16.33;;;;;;;11.77;100.00;101816.88;5027852;28;20127;-80
2021/10/27 06:10:57;;;;;;;32.33;15.30;;;;;;;11.77;100.00;101817.72;5026692;28;20514;-80
2021/10/27 06:13:30;;;;;;;27.98;15.60;;;;;;;11.84;100.00;101815.41;5037423;28;20037;-79
2021/10/27 06:15:56;;;;;;;29.02;15.23;;;;;;;11.78;100.00;101815.94;5019658;28;20086;-80
2021/10/27 06:18:22;;;;;;;27.48;15.32;;;;;;;11.82;100.00;101815.53;5042924;28;20033;-79
2021/10/27 06:20:47;;;;;;;26.60;14.93;;;;;;;11.86;100.00;101830.06;5014997;28;20067;-79
2021/10/27 06:23:13;;;;;;;24.85;14.48;;;;;;;11.83;100.00;101827.72;5029719;28;20040;-79
2021/10/27 06:25:39;;;;;;;30.00;14.93;;;;;;;11.83;100.00;101832.16;5029395;28;20045;-79
2021/10/27 06:28:10;;;;;;;25.83;15.20;;;;;;;11.83;100.00;101837.41;5036994;28;20040;-79
2021/10/27 06:30:53;;;;;;;28.27;14.98;;;;;;;11.82;100.00;101833.09;5034559;28;20131;-79
2021/10/27 06:33:42;;;;;;;35.13;15.23;;;;;;;11.87;100.00;101836.19;5046028;28;20033;-78
2021/10/27 06:36:14;;;;;;;29.67;13.68;;;;;;;11.83;100.00;101838.25;5016285;28;20041;-78
2021/10/27 06:38:56;;;;;;;33.25;14.65;;;;;;;11.87;100.00;101834.38;5036790;28;20033;-79
2021/10/27 06:46:49;;;;;;;23.52;15.00;;;;;;;11.92;100.00;101841.09;5048164;28;20052;-80
2021/10/27 06:49:15;;;;;;;21.05;13.60;;;;;;;11.91;100.00;101842.06;5023769;28;20037;-79
2021/10/27 06:51:41;;;;;;;24.30;14.73;;;;;;;11.91;100.00;101844.69;5018383;28;20593;-78
2021/10/27 06:54:07;;;;;;;26.15;14.90;;;;;;;11.96;100.00;101847.75;5036882;28;20039;-79
2021/10/27 06:56:35;;;;;;;23.58;14.18;;;;;;;11.92;100.00;101851.59;4999587;28;20045;-79
2021/10/27 07:15:49;;;;;;;21.17;14.57;;;;;;;11.96;100.00;101853.00;5042479;28;20483;-80
2021/10/27 07:17:52;;;;;;;22.33;15.10;;;;;;;11.90;100.00;101856.97;5002896;28;20045;-79
2021/10/27 07:20:18;;;;;;;26.52;15.10;;;;;;;11.91;100.00;101847.31;5030209;28;20521;-80
2021/10/27 07:22:44;;;;;;;21.52;14.75;;;;;;;11.88;100.00;101851.84;5014158;28;20426;-80
2021/10/27 07:25:13;;;;;;;23.17;15.20;;;;;;;11.92;100.00;101847.16;5015326;28;20032;-80
2021/10/27 07:27:38;;;;;;;19.88;15.18;;;;;;;12.02;100.00;101855.16;5045661;28;20394;-80
2021/10/27 07:30:04;;;;;;;23.92;15.73;;;;;;;12.12;100.00;101853.41;5005900;28;20152;-78
2021/10/27 07:32:31;;;;;;;21.95;15.48;;;;;;;12.03;100.00;101851.53;5036429;28;20434;-80
2021/10/27 07:35:04;;;;;;;24.30;16.08;;;;;;;12.13;100.00;101864.75;5020047;28;20040;-79
2021/10/27 07:43:08;;;;;;;24.35;16.25;;;;;;;12.19;100.00;101866.88;5036634;28;20029;-80
2021/10/27 07:45:34;;;;;;;21.35;14.25;;;;;;;12.18;100.00;101870.44;5020008;28;20057;-78
2021/10/27 07:48:00;;;;;;;22.58;15.93;;;;;;;12.15;100.00;101878.59;5028403;28;20071;-80
2021/10/27 07:50:28;;;;;;;24.27;15.70;;;;;;;12.14;100.00;101866.41;5014775;28;20033;-79
2021/10/27 07:52:54;;;;;;;24.55;17.00;;;;;;;12.24;100.00;101883.06;5022622;28;20052;-80
2021/10/27 07:55:20;;;;;;;22.50;16.23;;;;;;;12.18;100.00;101886.22;5018057;28;20487;-80
2021/10/27 07:57:47;;;;;;;23.30;15.48;;;;;;;12.22;100.00;101888.50;5027125;28;20041;-80
2021/10/27 08:00:15;;;;;;;23.27;14.55;;;;;;;12.24;100.00;101890.97;5041291;28;20563;-80
2021/10/27 08:02:42;;;;;;;27.15;15.32;;;;;;;12.20;100.00;101895.66;5045218;28;20059;-79
2021/10/27 08:05:07;;;;;;;23.38;14.93;;;;;;;12.22;100.00;101895.53;5015354;28;20032;-79
2021/10/27 08:07:40;;;;;;;25.10;14.65;;;;;;;12.24;100.00;101910.25;5028772;28;20170;-79
2021/10/27 08:10:06;;;;;;;20.50;14.70;;;;;;;12.20;100.00;101905.34;5018459;28;20175;-79
2021/10/27 08:12:33;;;;;;;22.92;15.82;;;;;;;12.23;100.00;101902.47;5047653;28;20067;-79
2021/10/27 08:14:58;;;;;;;25.42;14.98;;;;;;;12.26;100.00;101910.94;5007287;28;20128;-79
2021/10/27 08:17:24;;;;;;;25.90;15.07;;;;;;;12.41;100.00;101915.84;5031261;28;20452;-79
2021/10/27 08:19:50;;;;;;;23.80;15.27;;;;;;;12.36;100.00;101920.69;5024802;28;20102;-79
2021/10/27 08:22:16;;;;;;;20.55;13.88;;;;;;;12.35;100.00;101921.66;5035795;28;20040;-79
2021/10/27 08:24:42;;;;;;;28.38;14.25;;;;;;;12.34;100.00;101922.59;5027112;28;20025;-79
2021/10/27 08:27:09;;;;;;;19.90;13.27;;;;;;;12.37;100.00;101933.69;5035244;28;20409;-78
2021/10/27 08:29:40;;;;;;;19.67;12.15;;;;;;;12.38;100.00;101932.75;5032904;28;20815;-79
2021/10/27 08:35:04;;;;;;;20.65;12.57;;;;;;;12.39;100.00;101925.69;5018666;28;20069;-78
2021/10/27 08:37:30;;;;;;;17.92;12.13;;;;;;;12.34;100.00;101910.28;5051780;28;20098;-81
2021/10/27 08:39:55;;;;;;;20.02;11.88;;;;;;;12.44;100.00;101919.06;5018293;28;20475;-79
2021/10/27 08:42:23;;;;;;;22.45;12.50;;;;;;;12.47;100.00;101925.88;5031008;28;20127;-79
2021/10/27 08:44:48;;;;;;;19.70;12.32;;;;;;;12.55;100.00;101923.44;5019812;28;20087;-78
2021/10/27 08:47:14;;;;;;;18.73;13.05;;;;;;;12.58;100.00;101924.94;5020832;28;20041;-79
2021/10/27 08:49:42;;;;;;;21.63;11.93;;;;;;;12.55;100.00;101923.44;5036504;28;20464;-79
2021/10/27 08:52:11;;;;;;;17.98;12.25;;;;;;;12.59;100.00;101914.28;5038476;28;20037;-79
2021/10/27 08:54:37;;;;;;;20.08;11.50;;;;;;;12.60;100.00;101909.84;5003168;28;20041;-79
2021/10/27 08:57:09;;;;;;;19.50;12.13;;;;;;;12.66;100.00;101922.50;5030030;28;20127;-81
2021/10/27 08:59:47;;;;;;;18.27;11.43;;;;;;;12.71;100.00;101922.94;5050301;28;20048;-79
2021/10/27 09:02:30;;;;;;;19.00;11.10;;;;;;;12.68;100.00;101917.94;5021197;28;20647;-80
2021/10/27 09:05:18;;;;;;;20.02;11.55;;;;;;;12.75;100.00;101924.38;5022641;28;20037;-80
2021/10/27 09:39:07;;;;;;;13.75;9.30;;;;;;;12.64;100.00;101932.34;5034025;28;20096;-80
2021/10/27 09:56:09;;;;;;;15.10;9.80;;;;;;;12.86;100.00;101936.59;5035203;28;20061;-80
2021/10/27 10:06:44;;;;;;;15.60;9.48;;;;;;;12.94;100.00;101926.25;5022202;28;20040;-80
2021/10/27 10:09:12;;;;;;;13.75;9.65;;;;;;;12.90;100.00;101934.53;5036449;28;20044;-81
2021/10/27 10:11:38;;;;;;;14.85;10.70;;;;;;;12.84;100.00;101923.53;5049897;28;20561;-80
2021/10/27 10:14:09;;;;;;;15.93;10.18;;;;;;;12.85;100.00;101935.75;5037025;28;20048;-80
2021/10/27 10:16:42;;;;;;;15.25;10.93;;;;;;;12.83;100.00;101942.97;5024821;28;20037;-80
2021/10/27 10:19:11;;;;;;;14.85;10.70;;;;;;;12.84;100.00;101941.16;5026791;28;20037;-80
2021/10/27 10:21:40;;;;;;;12.70;10.07;;;;;;;12.77;100.00;101929.47;5024841;28;20572;-80
2021/10/27 10:24:15;;;;;;;14.80;10.95;;;;;;;12.84;100.00;101952.50;5033246;28;20029;-80
2021/10/27 10:26:42;;;;;;;15.55;10.48;;;;;;;12.84;100.00;101947.25;5052235;28;20048;-80
2021/10/27 10:29:07;;;;;;;18.80;10.45;;;;;;;12.92;100.00;101951.88;5031361;28;20070;-80
2021/10/27 10:31:36;;;;;;;16.95;10.05;;;;;;;12.92;100.00;101957.13;5023295;28;20045;-80
2021/10/27 10:34:04;;;;;;;16.80;11.23;;;;;;;12.93;100.00;101953.53;5034008;28;20044;-80
2021/10/27 10:36:36;;;;;;;13.13;10.55;;;;;;;12.95;100.00;101946.31;5032393;28;20262;-80
2021/10/27 10:41:56;;;;;;;16.73;10.75;;;;;;;12.99;100.00;101958.25;5029575;28;20032;-80
2021/10/27 10:59:01;;;;;;;14.45;10.30;;;;;;;13.03;100.00;101962.31;5044328;28;20033;-80
2021/10/27 11:25:26;;;;;;;11.93;7.97;;;;;;;13.34;100.00;101974.66;5040524;28;20041;-80
2021/10/27 11:38:56;;;;;;;11.13;8.25;;;;;;;13.29;100.00;101966.28;5017977;28;20094;-81
2021/10/27 11:41:32;;;;;;;9.23;7.75;;;;;;;13.21;100.00;101973.03;5006165;28;20068;-81
2021/10/27 11:44:12;;;;;;;10.68;7.70;;;;;;;13.22;100.00;101966.81;5043187;28;20296;-80
2021/10/27 11:46:55;;;;;;;10.70;7.40;;;;;;;13.22;100.00;101971.22;5021576;28;20041;-80
2021/10/27 11:49:25;;;;;;;10.55;7.25;;;;;;;13.21;100.00;101967.78;5010912;28;20029;-80
2021/10/27 11:51:58;;;;;;;10.15;6.88;;;;;;;13.12;100.00;101967.75;5022605;28;20033;-82
2021/10/27 11:54:27;;;;;;;11.20;7.32;;;;;;;13.15;100.00;101960.41;5034776;28;20530;-81
2021/10/27 11:56:54;;;;;;;10.90;7.88;;;;;;;13.12;100.00;101963.28;5034526;28;20045;-79
2021/10/27 11:59:20;;;;;;;10.82;7.38;;;;;;;13.16;100.00;101959.44;5040810;28;20475;-81
2021/10/27 12:01:53;;;;;;;15.65;7.95;;;;;;;13.16;100.00;101955.97;5029283;28;20044;-80
2021/10/27 12:04:20;;;;;;;14.68;8.27;;;;;;;13.14;100.00;101955.25;5019259;28;20395;-81
2021/10/27 12:06:56;;;;;;;10.27;7.80;;;;;;;13.15;100.00;101949.88;5030041;28;20128;-81
2021/10/27 12:20:34;;;;;;;14.45;7.53;;;;;;;13.13;100.00;101957.06;5039741;28;20033;-81
2021/10/27 12:23:00;;;;;;;9.95;7.22;;;;;;;13.10;100.00;101951.25;5024996;28;20048;-81
2021/10/27 12:25:27;;;;;;;13.55;7.82;;;;;;;13.16;100.00;101950.69;5030090;28;20525;-81
2021/10/27 12:27:59;;;;;;;13.32;7.82;;;;;;;13.17;100.00;101950.56;5030684;28;20036;-81
2021/10/27 12:30:24;;;;;;;13.23;7.95;;;;;;;13.12;100.00;101954.56;5029568;28;20033;-82
2021/10/27 12:32:52;;;;;;;14.07;8.50;;;;;;;13.07;100.00;101954.13;5049982;28;20036;-81
2021/10/27 12:35:19;;;;;;;11.73;8.18;;;;;;;13.07;100.00;101941.78;5016434;28;20073;-81
2021/10/27 12:40:39;;;;;;;14.82;8.38;;;;;;;13.06;100.00;101945.41;5037845;28;20079;-82
2021/10/27 12:43:09;;;;;;;11.45;8.43;;;;;;;13.04;100.00;101940.25;5054791;28;20040;-81
2021/10/27 12:45:44;;;;;;;13.35;8.45;;;;;;;13.05;100.00;101941.94;5040261;28;20040;-79
2021/10/27 12:48:17;;;;;;;15.98;8.98;;;;;;;13.07;100.00;101944.41;5036941;28;20032;-80
2021/10/27 12:50:57;;;;;;;15.13;8.60;;;;;;;12.96;100.00;101936.63;5028822;28;20520;-80
2021/10/27 12:53:31;;;;;;;13.60;8.63;;;;;;;12.96;100.00;101947.16;5022393;28;20051;-80
2021/10/27 12:56:30;;;;;;;10.82;8.38;;;;;;;12.92;100.00;101941.34;5031388;28;20033;-80
2021/10/27 12:59:05;;;;;;;12.05;8.60;;;;;;;12.94;100.00;101941.19;5021579;28;20108;-80
2021/10/27 13:22:33;;;;;;;13.57;8.63;;;;;;;12.93;100.00;101932.47;5024723;28;20048;-82
2021/10/27 13:30:34;;;;;;;13.68;9.75;;;;;;;12.89;100.00;101935.50;5037363;28;20036;-81
2021/10/27 13:33:03;;;;;;;14.40;8.73;;;;;;;12.94;100.00;101941.19;5034913;28;21732;-81
2021/10/27 13:35:29;;;;;;;15.10;8.55;;;;;;;12.88;100.00;101939.91;5019236;28;20125;-80
2021/10/27 13:37:55;;;;;;;13.23;8.60;;;;;;;12.88;100.00;101928.56;5025014;28;20033;-80
2021/10/27 13:40:21;;;;;;;16.10;8.35;;;;;;;12.90;100.00;101942.41;5039049;28;20043;-80
2021/10/27 13:42:52;;;;;;;16.38;8.73;;;;;;;12.93;100.00;101942.16;5042156;28;20380;-80
2021/10/27 13:47:58;;;;;;;12.20;8.27;;;;;;;12.89;100.00;101932.88;5036680;28;20045;-80
2021/10/27 13:59:11;;;;;;;15.70;8.38;;;;;;;12.82;100.00;101925.47;5050675;28;20103;-81
2021/10/27 14:07:17;;;;;;;14.13;7.55;;;;;;;12.89;100.00;101919.72;5027878;28;20045;-80
2021/10/27 14:15:22;;;;;;;13.05;7.40;;;;;;;12.87;100.00;101919.84;5037428;28;20037;-79
2021/10/27 14:22:02;;;;;;;12.50;6.72;;;;;;;12.86;100.00;101912.88;5023723;28;20037;-80
2021/10/27 14:48:28;;;;;;;10.57;4.03;;;;;;;12.86;100.00;101899.72;5027243;28;20094;-79
2021/10/27 15:19:33;;;;;;;11.85;3.88;;;;;;;12.83;100.00;101907.91;5035615;28;20491;-80
2021/10/27 15:21:10;;;;;;;11.07;3.72;;;;;;;12.64;100.00;101927.09;5049565;28;20043;-81
2021/10/27 15:23:45;;;;;;;22.42;4.70;;;;;;;12.58;100.00;101915.28;5017806;28;20095;-81
2021/10/27 15:29:13;;;;;;;4.85;3.00;;;;;;;12.54;100.00;101915.66;5048876;28;20037;-81
2021/10/27 15:32:22;;;;;;;11.40;3.53;;;;;;;12.58;100.00;101917.06;5046144;28;20041;-80
2021/10/27 15:34:55;;;;;;;10.73;3.35;;;;;;;12.52;100.00;101930.75;5005896;28;20076;-80